Abee, Canada
Current Conditions -  °F | °C
As of 6:00 AM on Saturday 27 Dec 2014 (Local Time) from CYED Reporting Station
Overcast Overcast  
Wind Chill: 10°   Ceiling: 8000
Heat Index: 19°   Visibility: 9mi
Dew Point: 16°   Wind: 7mph
Humidity: 86%   Direction: 270°W
Pressure: 29.89"   Gusts: NA
Location:  54.23°N, 113.02°W
Report Text: CYED 271300Z AUTO 27006KT 9SM OVC080 M07/M09 A2989 RMK SLP166
Loading
Personal Weather Stations






























Interactive Weather Map New forecast layout! Learn more

10-Day Weather Forecast

Advertisements
Track Severe Weather on mobile